sensor_id;sensor_type;location;lat;lon;timestamp;P1;durP1;ratioP1;P2;durP2;ratioP2
67528;SDS011;54366;51.980;5.856;2023-05-07T00:00:09;2.50;;;2.22;;
67528;SDS011;54366;51.980;5.856;2023-05-07T00:02:49;3.83;;;2.67;;
67528;SDS011;54366;51.980;5.856;2023-05-07T00:05:22;3.00;;;2.70;;
67528;SDS011;54366;51.980;5.856;2023-05-07T00:07:55;3.08;;;2.58;;
67528;SDS011;54366;51.980;5.856;2023-05-07T00:10:28;3.75;;;3.20;;
67528;SDS011;54366;51.980;5.856;2023-05-07T00:12:54;2.70;;;2.30;;
67528;SDS011;54366;51.980;5.856;2023-05-07T00:15:27;4.10;;;3.75;;
67528;SDS011;54366;51.980;5.856;2023-05-07T00:18:00;3.75;;;3.40;;
67528;SDS011;54366;51.980;5.856;2023-05-07T00:20:27;3.78;;;3.47;;
67528;SDS011;54366;51.980;5.856;2023-05-07T00:22:59;3.70;;;3.40;;
67528;SDS011;54366;51.980;5.856;2023-05-07T00:25:32;4.50;;;4.10;;
67528;SDS011;54366;51.980;5.856;2023-05-07T00:28:05;3.92;;;3.63;;
67528;SDS011;54366;51.980;5.856;2023-05-07T00:30:38;3.53;;;3.22;;
67528;SDS011;54366;51.980;5.856;2023-05-07T00:33:11;4.10;;;3.60;;
67528;SDS011;54366;51.980;5.856;2023-05-07T00:35:44;4.25;;;3.47;;
67528;SDS011;54366;51.980;5.856;2023-05-07T00:38:10;4.05;;;3.75;;
67528;SDS011;54366;51.980;5.856;2023-05-07T00:40:43;2.60;;;2.40;;
67528;SDS011;54366;51.980;5.856;2023-05-07T00:43:16;4.65;;;3.90;;
67528;SDS011;54366;51.980;5.856;2023-05-07T00:45:49;5.00;;;4.47;;
67528;SDS011;54366;51.980;5.856;2023-05-07T00:48:15;4.30;;;3.90;;
67528;SDS011;54366;51.980;5.856;2023-05-07T00:50:48;3.53;;;3.22;;
67528;SDS011;54366;51.980;5.856;2023-05-07T00:53:21;3.35;;;3.05;;
67528;SDS011;54366;51.980;5.856;2023-05-07T00:55:54;3.05;;;2.80;;
67528;SDS011;54366;51.980;5.856;2023-05-07T00:58:28;3.40;;;3.10;;
67528;SDS011;54366;51.980;5.856;2023-05-07T01:00:55;4.40;;;4.00;;
67528;SDS011;54366;51.980;5.856;2023-05-07T01:03:28;4.22;;;3.83;;
67528;SDS011;54366;51.980;5.856;2023-05-07T01:06:08;4.40;;;4.00;;
67528;SDS011;54366;51.980;5.856;2023-05-07T01:08:44;4.70;;;4.30;;
67528;SDS011;54366;51.980;5.856;2023-05-07T01:11:17;5.40;;;4.90;;
67528;SDS011;54366;51.980;5.856;2023-05-07T01:13:52;4.70;;;4.30;;
67528;SDS011;54366;51.980;5.856;2023-05-07T01:16:19;5.20;;;4.70;;
67528;SDS011;54366;51.980;5.856;2023-05-07T01:18:52;4.70;;;3.92;;
67528;SDS011;54366;51.980;5.856;2023-05-07T01:21:26;5.03;;;4.63;;
67528;SDS011;54366;51.980;5.856;2023-05-07T01:24:04;4.22;;;3.80;;
67528;SDS011;54366;51.980;5.856;2023-05-07T01:26:32;4.20;;;3.83;;
67528;SDS011;54366;51.980;5.856;2023-05-07T01:29:05;4.25;;;3.83;;
67528;SDS011;54366;51.980;5.856;2023-05-07T01:31:33;4.20;;;3.80;;
67528;SDS011;54366;51.980;5.856;2023-05-07T01:34:08;4.68;;;4.28;;
67528;SDS011;54366;51.980;5.856;2023-05-07T01:36:44;5.10;;;4.70;;
67528;SDS011;54366;51.980;5.856;2023-05-07T01:39:12;5.93;;;5.32;;
67528;SDS011;54366;51.980;5.856;2023-05-07T01:41:45;5.30;;;4.83;;
67528;SDS011;54366;51.980;5.856;2023-05-07T01:44:19;4.15;;;3.75;;
67528;SDS011;54366;51.980;5.856;2023-05-07T01:46:46;5.85;;;5.35;;
67528;SDS011;54366;51.980;5.856;2023-05-07T01:49:20;5.60;;;5.10;;
67528;SDS011;54366;51.980;5.856;2023-05-07T01:51:53;5.07;;;4.57;;
67528;SDS011;54366;51.980;5.856;2023-05-07T01:54:27;5.50;;;5.00;;
67528;SDS011;54366;51.980;5.856;2023-05-07T01:57:00;5.40;;;4.90;;
67528;SDS011;54366;51.980;5.856;2023-05-07T01:59:33;3.60;;;3.30;;
67528;SDS011;54366;51.980;5.856;2023-05-07T02:02:00;5.28;;;4.78;;
67528;SDS011;54366;51.980;5.856;2023-05-07T02:04:33;4.78;;;4.38;;
67528;SDS011;54366;51.980;5.856;2023-05-07T02:07:07;5.53;;;5.07;;
67528;SDS011;54366;51.980;5.856;2023-05-07T02:09:40;6.25;;;5.60;;
67528;SDS011;54366;51.980;5.856;2023-05-07T02:12:07;6.22;;;5.50;;
67528;SDS011;54366;51.980;5.856;2023-05-07T02:14:40;5.93;;;5.43;;
67528;SDS011;54366;51.980;5.856;2023-05-07T02:17:13;5.35;;;4.95;;
67528;SDS011;54366;51.980;5.856;2023-05-07T02:19:46;6.65;;;6.05;;
67528;SDS011;54366;51.980;5.856;2023-05-07T02:22:19;6.22;;;5.63;;
67528;SDS011;54366;51.980;5.856;2023-05-07T02:24:52;4.78;;;4.38;;
67528;SDS011;54366;51.980;5.856;2023-05-07T02:27:18;6.32;;;5.75;;
67528;SDS011;54366;51.980;5.856;2023-05-07T02:29:51;5.15;;;4.63;;
67528;SDS011;54366;51.980;5.856;2023-05-07T02:32:24;4.95;;;4.55;;
67528;SDS011;54366;51.980;5.856;2023-05-07T02:34:57;5.07;;;4.68;;
67528;SDS011;54366;51.980;5.856;2023-05-07T02:37:30;4.32;;;3.92;;
67528;SDS011;54366;51.980;5.856;2023-05-07T02:40:03;4.93;;;4.53;;
67528;SDS011;54366;51.980;5.856;2023-05-07T02:42:37;4.90;;;4.40;;
67528;SDS011;54366;51.980;5.856;2023-05-07T02:45:10;4.80;;;4.40;;
67528;SDS011;54366;51.980;5.856;2023-05-07T02:47:44;4.20;;;3.90;;
67528;SDS011;54366;51.980;5.856;2023-05-07T02:50:10;5.32;;;4.93;;
67528;SDS011;54366;51.980;5.856;2023-05-07T02:52:43;4.68;;;4.32;;
67528;SDS011;54366;51.980;5.856;2023-05-07T02:55:16;4.85;;;4.45;;
67528;SDS011;54366;51.980;5.856;2023-05-07T02:57:49;5.38;;;4.88;;
67528;SDS011;54366;51.980;5.856;2023-05-07T03:00:17;6.18;;;5.57;;
67528;SDS011;54366;51.980;5.856;2023-05-07T03:03:20;4.63;;;4.22;;
67528;SDS011;54366;51.980;5.856;2023-05-07T03:05:53;4.35;;;4.00;;
67528;SDS011;54366;51.980;5.856;2023-05-07T03:08:19;5.30;;;4.90;;
67528;SDS011;54366;51.980;5.856;2023-05-07T03:10:52;6.60;;;5.90;;
67528;SDS011;54366;51.980;5.856;2023-05-07T03:13:25;5.70;;;5.20;;
67528;SDS011;54366;51.980;5.856;2023-05-07T03:15:58;5.55;;;5.15;;
67528;SDS011;54366;51.980;5.856;2023-05-07T03:18:31;5.38;;;4.90;;
67528;SDS011;54366;51.980;5.856;2023-05-07T03:21:04;6.07;;;5.57;;
67528;SDS011;54366;51.980;5.856;2023-05-07T03:23:37;5.78;;;5.28;;
67528;SDS011;54366;51.980;5.856;2023-05-07T03:26:10;5.40;;;4.90;;
67528;SDS011;54366;51.980;5.856;2023-05-07T03:28:37;6.78;;;6.18;;
67528;SDS011;54366;51.980;5.856;2023-05-07T03:31:12;5.88;;;5.38;;
67528;SDS011;54366;51.980;5.856;2023-05-07T03:33:52;8.23;;;7.43;;
67528;SDS011;54366;51.980;5.856;2023-05-07T03:36:26;7.10;;;6.40;;
67528;SDS011;54366;51.980;5.856;2023-05-07T03:38:59;7.80;;;7.00;;
67528;SDS011;54366;51.980;5.856;2023-05-07T03:41:37;7.82;;;7.13;;
67528;SDS011;54366;51.980;5.856;2023-05-07T03:44:10;6.50;;;6.00;;
67528;SDS011;54366;51.980;5.856;2023-05-07T03:46:37;5.53;;;5.13;;
67528;SDS011;54366;51.980;5.856;2023-05-07T03:49:11;6.78;;;6.13;;
67528;SDS011;54366;51.980;5.856;2023-05-07T03:51:44;7.15;;;6.53;;
67528;SDS011;54366;51.980;5.856;2023-05-07T03:54:17;7.80;;;7.10;;
67528;SDS011;54366;51.980;5.856;2023-05-07T03:56:46;7.43;;;6.72;;
67528;SDS011;54366;51.980;5.856;2023-05-07T03:59:20;7.57;;;6.85;;
67528;SDS011;54366;51.980;5.856;2023-05-07T04:01:53;7.80;;;7.10;;
67528;SDS011;54366;51.980;5.856;2023-05-07T04:04:40;9.55;;;8.63;;
67528;SDS011;54366;51.980;5.856;2023-05-07T04:07:13;7.97;;;7.18;;
67528;SDS011;54366;51.980;5.856;2023-05-07T04:09:49;7.47;;;6.68;;
67528;SDS011;54366;51.980;5.856;2023-05-07T04:12:16;7.32;;;6.63;;
67528;SDS011;54366;51.980;5.856;2023-05-07T04:14:49;8.53;;;7.83;;
67528;SDS011;54366;51.980;5.856;2023-05-07T04:17:23;9.15;;;8.25;;
67528;SDS011;54366;51.980;5.856;2023-05-07T04:19:56;7.30;;;6.70;;
67528;SDS011;54366;51.980;5.856;2023-05-07T04:22:23;7.90;;;7.20;;
67528;SDS011;54366;51.980;5.856;2023-05-07T04:24:55;9.40;;;8.60;;
67528;SDS011;54366;51.980;5.856;2023-05-07T04:27:29;9.27;;;8.48;;
67528;SDS011;54366;51.980;5.856;2023-05-07T04:30:02;8.20;;;7.47;;
67528;SDS011;54366;51.980;5.856;2023-05-07T04:32:38;7.78;;;7.07;;
67528;SDS011;54366;51.980;5.856;2023-05-07T04:35:11;6.93;;;6.32;;
67528;SDS011;54366;51.980;5.856;2023-05-07T04:37:44;7.70;;;7.07;;
67528;SDS011;54366;51.980;5.856;2023-05-07T04:40:17;8.25;;;7.55;;
67528;SDS011;54366;51.980;5.856;2023-05-07T04:42:50;9.45;;;8.57;;
67528;SDS011;54366;51.980;5.856;2023-05-07T04:45:23;8.77;;;7.97;;
67528;SDS011;54366;51.980;5.856;2023-05-07T04:47:52;10.13;;;9.20;;
67528;SDS011;54366;51.980;5.856;2023-05-07T04:50:25;10.88;;;9.75;;
67528;SDS011;54366;51.980;5.856;2023-05-07T04:53:01;8.27;;;7.57;;
67528;SDS011;54366;51.980;5.856;2023-05-07T04:58:08;11.88;;;10.88;;
67528;SDS011;54366;51.980;5.856;2023-05-07T05:00:43;11.82;;;10.70;;
67528;SDS011;54366;51.980;5.856;2023-05-07T05:03:16;10.00;;;9.10;;
67528;SDS011;54366;51.980;5.856;2023-05-07T05:05:50;9.35;;;8.45;;
67528;SDS011;54366;51.980;5.856;2023-05-07T05:08:25;10.80;;;9.85;;
67528;SDS011;54366;51.980;5.856;2023-05-07T05:11:00;9.02;;;8.15;;
67528;SDS011;54366;51.980;5.856;2023-05-07T05:13:28;10.85;;;9.93;;
67528;SDS011;54366;51.980;5.856;2023-05-07T05:16:08;13.02;;;11.85;;
67528;SDS011;54366;51.980;5.856;2023-05-07T05:18:41;10.27;;;9.38;;
67528;SDS011;54366;51.980;5.856;2023-05-07T05:21:17;11.73;;;10.75;;
67528;SDS011;54366;51.980;5.856;2023-05-07T05:23:54;11.27;;;10.23;;
67528;SDS011;54366;51.980;5.856;2023-05-07T05:26:27;10.68;;;9.68;;
67528;SDS011;54366;51.980;5.856;2023-05-07T05:28:54;9.80;;;8.90;;
67528;SDS011;54366;51.980;5.856;2023-05-07T05:31:28;8.52;;;7.75;;
67528;SDS011;54366;51.980;5.856;2023-05-07T05:34:02;13.23;;;12.02;;
67528;SDS011;54366;51.980;5.856;2023-05-07T05:36:28;11.25;;;10.32;;
67528;SDS011;54366;51.980;5.856;2023-05-07T05:39:01;11.25;;;10.25;;
67528;SDS011;54366;51.980;5.856;2023-05-07T05:41:34;12.90;;;11.80;;
67528;SDS011;54366;51.980;5.856;2023-05-07T05:44:07;11.37;;;10.30;;
67528;SDS011;54366;51.980;5.856;2023-05-07T05:46:42;11.95;;;10.90;;
67528;SDS011;54366;51.980;5.856;2023-05-07T05:49:08;10.27;;;9.35;;
67528;SDS011;54366;51.980;5.856;2023-05-07T05:51:42;11.07;;;10.00;;
67528;SDS011;54366;51.980;5.856;2023-05-07T05:54:16;11.88;;;10.80;;
67528;SDS011;54366;51.980;5.856;2023-05-07T05:56:48;11.32;;;10.32;;
67528;SDS011;54366;51.980;5.856;2023-05-07T06:01:55;11.30;;;10.20;;
67528;SDS011;54366;51.980;5.856;2023-05-07T06:04:41;10.32;;;9.43;;
67528;SDS011;54366;51.980;5.856;2023-05-07T06:07:17;9.68;;;8.88;;
67528;SDS011;54366;51.980;5.856;2023-05-07T06:09:50;8.40;;;7.70;;
67528;SDS011;54366;51.980;5.856;2023-05-07T06:12:17;9.25;;;8.45;;
67528;SDS011;54366;51.980;5.856;2023-05-07T06:14:49;10.00;;;9.20;;
67528;SDS011;54366;51.980;5.856;2023-05-07T06:17:23;9.63;;;8.75;;
67528;SDS011;54366;51.980;5.856;2023-05-07T06:19:51;11.23;;;10.20;;
67528;SDS011;54366;51.980;5.856;2023-05-07T06:22:24;9.23;;;8.40;;
67528;SDS011;54366;51.980;5.856;2023-05-07T06:24:51;9.82;;;8.95;;
67528;SDS011;54366;51.980;5.856;2023-05-07T06:27:24;12.48;;;11.27;;
67528;SDS011;54366;51.980;5.856;2023-05-07T06:29:58;9.80;;;9.00;;
67528;SDS011;54366;51.980;5.856;2023-05-07T06:32:31;10.98;;;10.07;;
67528;SDS011;54366;51.980;5.856;2023-05-07T06:35:05;8.65;;;7.88;;
67528;SDS011;54366;51.980;5.856;2023-05-07T06:37:40;8.55;;;7.80;;
67528;SDS011;54366;51.980;5.856;2023-05-07T06:40:22;11.60;;;10.60;;
67528;SDS011;54366;51.980;5.856;2023-05-07T06:42:58;10.57;;;9.65;;
67528;SDS011;54366;51.980;5.856;2023-05-07T06:45:54;10.00;;;9.10;;
67528;SDS011;54366;51.980;5.856;2023-05-07T06:48:27;11.63;;;10.48;;
67528;SDS011;54366;51.980;5.856;2023-05-07T06:51:04;11.10;;;10.00;;
67528;SDS011;54366;51.980;5.856;2023-05-07T06:53:37;10.73;;;9.83;;
67528;SDS011;54366;51.980;5.856;2023-05-07T06:56:04;13.25;;;12.00;;
67528;SDS011;54366;51.980;5.856;2023-05-07T07:01:11;10.88;;;9.88;;
67528;SDS011;54366;51.980;5.856;2023-05-07T07:03:44;10.10;;;9.20;;
67528;SDS011;54366;51.980;5.856;2023-05-07T07:06:24;11.23;;;10.20;;
67528;SDS011;54366;51.980;5.856;2023-05-07T07:08:59;12.02;;;10.95;;
67528;SDS011;54366;51.980;5.856;2023-05-07T07:11:26;8.70;;;8.00;;
67528;SDS011;54366;51.980;5.856;2023-05-07T07:13:59;12.57;;;11.47;;
67528;SDS011;54366;51.980;5.856;2023-05-07T07:16:37;12.23;;;11.23;;
67528;SDS011;54366;51.980;5.856;2023-05-07T07:19:10;12.45;;;11.35;;
67528;SDS011;54366;51.980;5.856;2023-05-07T07:21:45;10.15;;;9.25;;
67528;SDS011;54366;51.980;5.856;2023-05-07T07:24:18;15.05;;;13.73;;
67528;SDS011;54366;51.980;5.856;2023-05-07T07:26:57;16.83;;;15.43;;
67528;SDS011;54366;51.980;5.856;2023-05-07T07:29:33;17.20;;;15.73;;
67528;SDS011;54366;51.980;5.856;2023-05-07T07:31:59;13.35;;;12.25;;
67528;SDS011;54366;51.980;5.856;2023-05-07T07:34:32;17.48;;;15.82;;
67528;SDS011;54366;51.980;5.856;2023-05-07T07:37:06;16.00;;;14.50;;
67528;SDS011;54366;51.980;5.856;2023-05-07T07:39:38;16.33;;;14.73;;
67528;SDS011;54366;51.980;5.856;2023-05-07T07:42:12;17.17;;;15.57;;
67528;SDS011;54366;51.980;5.856;2023-05-07T07:44:38;17.05;;;15.45;;
67528;SDS011;54366;51.980;5.856;2023-05-07T07:47:14;15.68;;;14.27;;
67528;SDS011;54366;51.980;5.856;2023-05-07T07:49:41;13.38;;;12.10;;
67528;SDS011;54366;51.980;5.856;2023-05-07T07:52:14;18.25;;;16.52;;
67528;SDS011;54366;51.980;5.856;2023-05-07T07:54:47;14.65;;;13.25;;
67528;SDS011;54366;51.980;5.856;2023-05-07T07:57:14;16.27;;;14.85;;
67528;SDS011;54366;51.980;5.856;2023-05-07T07:59:48;14.98;;;13.57;;
67528;SDS011;54366;51.980;5.856;2023-05-07T08:02:29;19.98;;;17.98;;
67528;SDS011;54366;51.980;5.856;2023-05-07T08:05:02;17.45;;;15.75;;
67528;SDS011;54366;51.980;5.856;2023-05-07T08:07:43;14.32;;;12.95;;
67528;SDS011;54366;51.980;5.856;2023-05-07T08:10:16;18.85;;;17.10;;
67528;SDS011;54366;51.980;5.856;2023-05-07T08:12:59;16.90;;;15.32;;
67528;SDS011;54366;51.980;5.856;2023-05-07T08:15:36;14.20;;;12.80;;
67528;SDS011;54366;51.980;5.856;2023-05-07T08:18:03;12.00;;;10.80;;
67528;SDS011;54366;51.980;5.856;2023-05-07T08:20:35;15.98;;;14.40;;
67528;SDS011;54366;51.980;5.856;2023-05-07T08:23:16;14.15;;;12.77;;
67528;SDS011;54366;51.980;5.856;2023-05-07T08:25:49;15.57;;;14.07;;
67528;SDS011;54366;51.980;5.856;2023-05-07T08:28:24;14.65;;;13.35;;
67528;SDS011;54366;51.980;5.856;2023-05-07T08:30:50;12.05;;;10.85;;
67528;SDS011;54366;51.980;5.856;2023-05-07T08:33:23;15.98;;;14.38;;
67528;SDS011;54366;51.980;5.856;2023-05-07T08:35:56;15.10;;;13.70;;
67528;SDS011;54366;51.980;5.856;2023-05-07T08:38:29;13.73;;;12.35;;
67528;SDS011;54366;51.980;5.856;2023-05-07T08:41:03;14.40;;;13.10;;
67528;SDS011;54366;51.980;5.856;2023-05-07T08:43:37;13.18;;;11.88;;
67528;SDS011;54366;51.980;5.856;2023-05-07T08:46:12;12.43;;;11.32;;
67528;SDS011;54366;51.980;5.856;2023-05-07T08:48:54;10.88;;;9.85;;
67528;SDS011;54366;51.980;5.856;2023-05-07T08:51:27;11.63;;;10.63;;
67528;SDS011;54366;51.980;5.856;2023-05-07T08:53:59;10.90;;;10.00;;
67528;SDS011;54366;51.980;5.856;2023-05-07T08:56:33;10.32;;;9.45;;
67528;SDS011;54366;51.980;5.856;2023-05-07T08:59:06;15.68;;;14.07;;
67528;SDS011;54366;51.980;5.856;2023-05-07T09:01:41;13.57;;;12.27;;
67528;SDS011;54366;51.980;5.856;2023-05-07T09:04:15;14.45;;;12.95;;
67528;SDS011;54366;51.980;5.856;2023-05-07T09:06:48;13.75;;;12.45;;
67528;SDS011;54366;51.980;5.856;2023-05-07T09:09:18;12.88;;;11.63;;
67528;SDS011;54366;51.980;5.856;2023-05-07T09:11:56;11.75;;;10.73;;
67528;SDS011;54366;51.980;5.856;2023-05-07T09:14:33;11.18;;;10.10;;
67528;SDS011;54366;51.980;5.856;2023-05-07T09:17:01;13.38;;;11.98;;
67528;SDS011;54366;51.980;5.856;2023-05-07T09:19:34;11.98;;;10.85;;
67528;SDS011;54366;51.980;5.856;2023-05-07T09:22:07;10.43;;;9.50;;
67528;SDS011;54366;51.980;5.856;2023-05-07T09:24:54;16.20;;;14.63;;
67528;SDS011;54366;51.980;5.856;2023-05-07T09:27:27;12.53;;;11.43;;
67528;SDS011;54366;51.980;5.856;2023-05-07T09:30:04;15.70;;;14.25;;
67528;SDS011;54366;51.980;5.856;2023-05-07T09:32:41;12.05;;;10.95;;
67528;SDS011;54366;51.980;5.856;2023-05-07T09:35:17;11.18;;;10.02;;
67528;SDS011;54366;51.980;5.856;2023-05-07T09:37:56;9.65;;;8.75;;
67528;SDS011;54366;51.980;5.856;2023-05-07T09:40:33;13.35;;;12.10;;
67528;SDS011;54366;51.980;5.856;2023-05-07T09:43:11;12.88;;;11.68;;
67528;SDS011;54366;51.980;5.856;2023-05-07T09:45:52;13.90;;;12.60;;
67528;SDS011;54366;51.980;5.856;2023-05-07T09:48:26;13.18;;;11.90;;
67528;SDS011;54366;51.980;5.856;2023-05-07T09:51:01;12.93;;;11.63;;
67528;SDS011;54366;51.980;5.856;2023-05-07T09:53:35;12.95;;;11.43;;
67528;SDS011;54366;51.980;5.856;2023-05-07T09:56:08;14.70;;;13.18;;
67528;SDS011;54366;51.980;5.856;2023-05-07T09:58:42;11.05;;;10.02;;
67528;SDS011;54366;51.980;5.856;2023-05-07T10:01:17;12.00;;;10.88;;
67528;SDS011;54366;51.980;5.856;2023-05-07T10:04:01;11.82;;;10.75;;
67528;SDS011;54366;51.980;5.856;2023-05-07T10:06:43;12.57;;;11.30;;
67528;SDS011;54366;51.980;5.856;2023-05-07T10:09:11;10.15;;;9.20;;
67528;SDS011;54366;51.980;5.856;2023-05-07T10:11:46;12.25;;;11.05;;
67528;SDS011;54366;51.980;5.856;2023-05-07T10:14:23;10.10;;;9.20;;
67528;SDS011;54366;51.980;5.856;2023-05-07T10:19:30;10.75;;;9.82;;
67528;SDS011;54366;51.980;5.856;2023-05-07T10:22:05;12.25;;;11.15;;
67528;SDS011;54366;51.980;5.856;2023-05-07T10:24:39;11.52;;;10.43;;
67528;SDS011;54366;51.980;5.856;2023-05-07T10:27:16;14.55;;;13.15;;
67528;SDS011;54366;51.980;5.856;2023-05-07T10:30:05;11.80;;;10.70;;
67528;SDS011;54366;51.980;5.856;2023-05-07T10:32:53;9.93;;;9.02;;
67528;SDS011;54366;51.980;5.856;2023-05-07T10:35:31;11.45;;;10.45;;
67528;SDS011;54366;51.980;5.856;2023-05-07T10:38:10;11.65;;;10.65;;
67528;SDS011;54366;51.980;5.856;2023-05-07T10:40:45;10.60;;;9.60;;
67528;SDS011;54366;51.980;5.856;2023-05-07T10:43:17;12.27;;;11.18;;
67528;SDS011;54366;51.980;5.856;2023-05-07T10:46:15;11.43;;;10.43;;
67528;SDS011;54366;51.980;5.856;2023-05-07T10:52:14;11.57;;;10.48;;
67528;SDS011;54366;51.980;5.856;2023-05-07T10:55:19;11.65;;;10.55;;
67528;SDS011;54366;51.980;5.856;2023-05-07T10:58:24;10.57;;;9.68;;
67528;SDS011;54366;51.980;5.856;2023-05-07T11:04:42;9.15;;;8.38;;
67528;SDS011;54366;51.980;5.856;2023-05-07T11:07:29;11.23;;;10.23;;
67528;SDS011;54366;51.980;5.856;2023-05-07T11:10:11;9.43;;;8.48;;
67528;SDS011;54366;51.980;5.856;2023-05-07T11:12:55;8.95;;;8.13;;
67528;SDS011;54366;51.980;5.856;2023-05-07T11:15:35;9.15;;;8.25;;
67528;SDS011;54366;51.980;5.856;2023-05-07T11:18:17;10.50;;;9.48;;
67528;SDS011;54366;51.980;5.856;2023-05-07T11:20:57;9.60;;;8.80;;
67528;SDS011;54366;51.980;5.856;2023-05-07T11:23:54;9.03;;;8.23;;
67528;SDS011;54366;51.980;5.856;2023-05-07T11:26:42;8.65;;;7.85;;
67528;SDS011;54366;51.980;5.856;2023-05-07T11:29:19;7.20;;;6.60;;
67528;SDS011;54366;51.980;5.856;2023-05-07T11:31:59;8.20;;;7.40;;
67528;SDS011;54366;51.980;5.856;2023-05-07T11:34:39;11.38;;;10.27;;
67528;SDS011;54366;51.980;5.856;2023-05-07T11:37:16;8.90;;;8.13;;
67528;SDS011;54366;51.980;5.856;2023-05-07T11:42:38;9.48;;;8.68;;
67528;SDS011;54366;51.980;5.856;2023-05-07T11:45:06;7.53;;;6.93;;
67528;SDS011;54366;51.980;5.856;2023-05-07T11:47:41;7.68;;;7.07;;
67528;SDS011;54366;51.980;5.856;2023-05-07T11:52:50;8.05;;;7.25;;
67528;SDS011;54366;51.980;5.856;2023-05-07T11:55:24;7.70;;;7.00;;
67528;SDS011;54366;51.980;5.856;2023-05-07T11:57:51;9.00;;;8.13;;
67528;SDS011;54366;51.980;5.856;2023-05-07T12:00:24;9.63;;;8.83;;
67528;SDS011;54366;51.980;5.856;2023-05-07T12:03:02;6.90;;;6.33;;
67528;SDS011;54366;51.980;5.856;2023-05-07T12:05:45;6.57;;;6.00;;
67528;SDS011;54366;51.980;5.856;2023-05-07T12:08:19;8.20;;;7.40;;
67528;SDS011;54366;51.980;5.856;2023-05-07T12:10:48;8.70;;;7.90;;
67528;SDS011;54366;51.980;5.856;2023-05-07T12:13:22;7.88;;;7.18;;
67528;SDS011;54366;51.980;5.856;2023-05-07T12:15:58;7.07;;;6.43;;
67528;SDS011;54366;51.980;5.856;2023-05-07T12:18:31;7.88;;;7.18;;
67528;SDS011;54366;51.980;5.856;2023-05-07T12:21:05;7.00;;;6.40;;
67528;SDS011;54366;51.980;5.856;2023-05-07T12:23:39;7.03;;;6.50;;
67528;SDS011;54366;51.980;5.856;2023-05-07T12:28:38;7.28;;;6.57;;
67528;SDS011;54366;51.980;5.856;2023-05-07T12:31:11;6.60;;;6.00;;
67528;SDS011;54366;51.980;5.856;2023-05-07T12:33:46;6.90;;;6.20;;
67528;SDS011;54366;51.980;5.856;2023-05-07T12:36:19;7.97;;;7.07;;
67528;SDS011;54366;51.980;5.856;2023-05-07T12:38:46;8.70;;;7.80;;
67528;SDS011;54366;51.980;5.856;2023-05-07T12:41:21;8.82;;;7.93;;
67528;SDS011;54366;51.980;5.856;2023-05-07T12:43:58;8.05;;;7.35;;
67528;SDS011;54366;51.980;5.856;2023-05-07T12:46:31;7.03;;;6.43;;
67528;SDS011;54366;51.980;5.856;2023-05-07T12:49:04;7.20;;;6.60;;
67528;SDS011;54366;51.980;5.856;2023-05-07T12:51:31;6.47;;;5.97;;
67528;SDS011;54366;51.980;5.856;2023-05-07T12:54:03;6.55;;;5.97;;
67528;SDS011;54366;51.980;5.856;2023-05-07T12:56:36;6.47;;;5.97;;
67528;SDS011;54366;51.980;5.856;2023-05-07T12:59:03;6.75;;;6.07;;
67528;SDS011;54366;51.980;5.856;2023-05-07T13:01:35;6.95;;;6.28;;
67528;SDS011;54366;51.980;5.856;2023-05-07T13:04:08;7.90;;;7.10;;
67528;SDS011;54366;51.980;5.856;2023-05-07T13:06:55;6.97;;;6.38;;
67528;SDS011;54366;51.980;5.856;2023-05-07T13:09:27;4.88;;;4.45;;
67528;SDS011;54366;51.980;5.856;2023-05-07T13:12:03;6.35;;;5.85;;
67528;SDS011;54366;51.980;5.856;2023-05-07T13:14:31;6.50;;;5.97;;
67528;SDS011;54366;51.980;5.856;2023-05-07T13:17:03;6.63;;;5.97;;
67528;SDS011;54366;51.980;5.856;2023-05-07T13:19:36;6.70;;;6.15;;
67528;SDS011;54366;51.980;5.856;2023-05-07T13:22:09;6.30;;;5.80;;
67528;SDS011;54366;51.980;5.856;2023-05-07T13:24:42;6.23;;;5.73;;
67528;SDS011;54366;51.980;5.856;2023-05-07T13:27:15;6.03;;;5.53;;
67528;SDS011;54366;51.980;5.856;2023-05-07T13:29:48;6.00;;;5.40;;
67528;SDS011;54366;51.980;5.856;2023-05-07T13:32:21;5.05;;;4.65;;
67528;SDS011;54366;51.980;5.856;2023-05-07T13:34:54;5.63;;;5.13;;
67528;SDS011;54366;51.980;5.856;2023-05-07T13:37:21;6.35;;;5.75;;
67528;SDS011;54366;51.980;5.856;2023-05-07T13:39:53;5.75;;;5.25;;
67528;SDS011;54366;51.980;5.856;2023-05-07T13:42:26;8.27;;;7.53;;
67528;SDS011;54366;51.980;5.856;2023-05-07T13:44:59;6.50;;;5.90;;
67528;SDS011;54366;51.980;5.856;2023-05-07T13:47:32;6.30;;;5.70;;
67528;SDS011;54366;51.980;5.856;2023-05-07T13:50:06;7.73;;;7.03;;
67528;SDS011;54366;51.980;5.856;2023-05-07T13:55:13;8.18;;;7.47;;
67528;SDS011;54366;51.980;5.856;2023-05-07T13:57:47;6.03;;;5.43;;
67528;SDS011;54366;51.980;5.856;2023-05-07T14:00:13;6.22;;;5.18;;
67528;SDS011;54366;51.980;5.856;2023-05-07T14:02:48;5.97;;;5.45;;
67528;SDS011;54366;51.980;5.856;2023-05-07T14:05:21;6.23;;;5.67;;
67528;SDS011;54366;51.980;5.856;2023-05-07T14:07:59;5.55;;;5.05;;
67528;SDS011;54366;51.980;5.856;2023-05-07T14:10:32;4.78;;;4.38;;
67528;SDS011;54366;51.980;5.856;2023-05-07T14:13:00;5.60;;;5.18;;
67528;SDS011;54366;51.980;5.856;2023-05-07T14:15:32;6.20;;;5.43;;
67528;SDS011;54366;51.980;5.856;2023-05-07T14:18:05;6.83;;;6.23;;
67528;SDS011;54366;51.980;5.856;2023-05-07T14:20:38;7.50;;;6.83;;
67528;SDS011;54366;51.980;5.856;2023-05-07T14:23:11;6.03;;;5.40;;
67528;SDS011;54366;51.980;5.856;2023-05-07T14:25:45;5.70;;;4.87;;
67528;SDS011;54366;51.980;5.856;2023-05-07T14:28:13;4.45;;;4.15;;
67528;SDS011;54366;51.980;5.856;2023-05-07T14:30:46;5.07;;;4.65;;
67528;SDS011;54366;51.980;5.856;2023-05-07T14:33:18;7.10;;;6.40;;
67528;SDS011;54366;51.980;5.856;2023-05-07T14:35:51;4.90;;;4.50;;
67528;SDS011;54366;51.980;5.856;2023-05-07T14:38:24;5.00;;;4.50;;
67528;SDS011;54366;51.980;5.856;2023-05-07T14:40:57;5.73;;;5.07;;
67528;SDS011;54366;51.980;5.856;2023-05-07T14:43:30;5.75;;;5.25;;
67528;SDS011;54366;51.980;5.856;2023-05-07T14:46:03;6.23;;;5.73;;
67528;SDS011;54366;51.980;5.856;2023-05-07T14:48:36;7.73;;;7.03;;
67528;SDS011;54366;51.980;5.856;2023-05-07T14:51:03;5.40;;;5.00;;
67528;SDS011;54366;51.980;5.856;2023-05-07T14:53:35;4.72;;;4.35;;
67528;SDS011;54366;51.980;5.856;2023-05-07T14:56:08;5.47;;;4.53;;
67528;SDS011;54366;51.980;5.856;2023-05-07T14:58:41;5.65;;;5.00;;
67528;SDS011;54366;51.980;5.856;2023-05-07T15:01:14;7.17;;;6.50;;
67528;SDS011;54366;51.980;5.856;2023-05-07T15:03:47;7.18;;;6.07;;
67528;SDS011;54366;51.980;5.856;2023-05-07T15:06:21;6.00;;;5.50;;
67528;SDS011;54366;51.980;5.856;2023-05-07T15:09:08;4.25;;;3.95;;
67528;SDS011;54366;51.980;5.856;2023-05-07T15:11:40;4.72;;;4.32;;
67528;SDS011;54366;51.980;5.856;2023-05-07T15:14:13;5.65;;;5.03;;
67528;SDS011;54366;51.980;5.856;2023-05-07T15:16:47;4.50;;;4.00;;
67528;SDS011;54366;51.980;5.856;2023-05-07T15:19:15;4.72;;;4.13;;
67528;SDS011;54366;51.980;5.856;2023-05-07T15:21:48;4.57;;;4.18;;
67528;SDS011;54366;51.980;5.856;2023-05-07T15:24:15;4.70;;;3.92;;
67528;SDS011;54366;51.980;5.856;2023-05-07T15:26:47;3.17;;;2.85;;
67528;SDS011;54366;51.980;5.856;2023-05-07T15:29:20;1.17;;;1.08;;
67528;SDS011;54366;51.980;5.856;2023-05-07T15:31:55;1.50;;;1.00;;
67528;SDS011;54366;51.980;5.856;2023-05-07T15:34:22;0.50;;;0.40;;
67528;SDS011;54366;51.980;5.856;2023-05-07T15:36:55;0.77;;;0.40;;
67528;SDS011;54366;51.980;5.856;2023-05-07T15:39:30;0.40;;;0.40;;
67528;SDS011;54366;51.980;5.856;2023-05-07T15:41:56;0.82;;;0.60;;
67528;SDS011;54366;51.980;5.856;2023-05-07T15:44:28;0.40;;;0.40;;